Time;durP1;ratioP1;P1;durP2;ratioP2;P2;SDS_P1;SDS_P2;PMS_P1;PMS_P2;Temp;Humidity;BMP_temperature;BMP_pressure;BME280_temperature;BME280_humidity;BME280_pressure;Samples;Min_cycle;Max_cycle;Signal;HPM_P1;HPM_P2
2021/12/12 00:00:27;;;;;;;;;;;19.50;99.90;;;;;;5070898;28;20295;-74
2021/12/12 00:02:59;;;;;;;;;;;19.50;99.90;;;;;;5071144;28;19938;-75
2021/12/12 00:05:29;;;;;;;;;;;19.70;99.90;;;;;;5070934;28;19923;-75
2021/12/12 00:07:56;;;;;;;;;;;19.80;99.90;;;;;;5070713;28;19939;-72
2021/12/12 00:10:26;;;;;;;;;;;19.80;99.90;;;;;;5070988;28;19920;-74
2021/12/12 00:12:55;;;;;;;;;;;19.90;99.90;;;;;;5064801;28;19924;-73
2021/12/12 00:15:22;;;;;;;;;;;19.90;99.90;;;;;;5070928;28;20272;-73
2021/12/12 00:17:49;;;;;;;;;;;20.00;99.90;;;;;;5070911;28;19912;-74
2021/12/12 00:20:18;;;;;;;;;;;20.10;99.90;;;;;;5070656;28;19928;-74
2021/12/12 00:22:45;;;;;;;;;;;20.20;99.90;;;;;;5071011;28;19920;-73
2021/12/12 00:25:12;;;;;;;;;;;20.40;99.90;;;;;;5070911;28;19916;-73
2021/12/12 00:27:38;;;;;;;;;;;20.60;99.90;;;;;;5071241;28;20007;-74
2021/12/12 00:30:06;;;;;;;;;;;20.60;99.90;;;;;;5070914;28;20009;-74
2021/12/12 00:32:36;;;;;;;;;;;20.70;99.90;;;;;;5070783;28;20434;-72
2021/12/12 00:35:05;;;;;;;;;;;20.60;99.90;;;;;;5068760;28;19913;-74
2021/12/12 00:37:32;;;;;;;;;;;20.60;99.90;;;;;;5074698;28;19923;-74
2021/12/12 00:40:11;;;;;;;;;;;20.90;99.90;;;;;;5072206;28;19917;-73
2021/12/12 00:42:38;;;;;;;;;;;21.20;99.90;;;;;;5070786;28;19920;-73
2021/12/12 00:45:07;;;;;;;;;;;21.00;99.90;;;;;;5072694;28;19963;-73
2021/12/12 00:47:34;;;;;;;;;;;21.40;99.90;;;;;;5074789;28;19912;-73
2021/12/12 00:50:02;;;;;;;;;;;21.70;99.90;;;;;;5073415;28;20344;-73
2021/12/12 00:52:29;;;;;;;;;;;21.80;99.90;;;;;;5074414;28;19916;-73
2021/12/12 00:54:55;;;;;;;;;;;21.60;99.90;;;;;;5073742;28;20328;-74
2021/12/12 00:57:23;;;;;;;;;;;21.50;99.90;;;;;;5074553;28;19919;-72
2021/12/12 00:59:49;;;;;;;;;;;21.40;99.90;;;;;;5072788;28;19920;-74
2021/12/12 01:02:18;;;;;;;;;;;21.50;99.90;;;;;;5074632;28;19978;-72
2021/12/12 01:04:46;;;;;;;;;;;21.40;99.90;;;;;;5074633;28;19952;-74
2021/12/12 01:07:15;;;;;;;;;;;21.30;99.90;;;;;;5074163;28;20003;-72
2021/12/12 01:09:48;;;;;;;;;;;21.40;99.90;;;;;;5074072;28;21123;-74
2021/12/12 01:12:20;;;;;;;;;;;21.50;99.90;;;;;;5073934;28;19916;-73
2021/12/12 01:14:50;;;;;;;;;;;21.40;99.90;;;;;;5074356;28;20350;-73
2021/12/12 01:17:20;;;;;;;;;;;21.10;99.90;;;;;;5074098;28;19959;-74
2021/12/12 01:19:50;;;;;;;;;;;21.30;99.90;;;;;;5072722;28;20014;-74
2021/12/12 01:22:23;;;;;;;;;;;21.50;99.90;;;;;;5073874;28;20363;-74
2021/12/12 01:24:51;;;;;;;;;;;21.60;99.90;;;;;;5074317;28;19917;-73
2021/12/12 01:27:19;;;;;;;;;;;21.60;99.90;;;;;;5073968;28;19957;-73
2021/12/12 01:29:46;;;;;;;;;;;21.80;99.90;;;;;;5074004;28;19977;-73
2021/12/12 01:32:22;;;;;;;;;;;21.80;99.90;;;;;;5073817;28;19920;-73
2021/12/12 01:34:52;;;;;;;;;;;21.70;99.90;;;;;;5074016;28;19912;-72
2021/12/12 01:40:12;;;;;;;;;;;21.50;99.90;;;;;;5073120;28;19967;-74
2021/12/12 01:42:50;;;;;;;;;;;21.50;99.90;;;;;;5073474;28;19920;-72
2021/12/12 01:45:29;;;;;;;;;;;21.50;99.90;;;;;;5068199;28;20382;-72
2021/12/12 01:47:58;;;;;;;;;;;21.50;99.90;;;;;;5068919;28;19916;-73
2021/12/12 01:50:31;;;;;;;;;;;21.50;99.90;;;;;;5073437;28;19916;-72
2021/12/12 01:52:59;;;;;;;;;;;21.50;99.90;;;;;;5070403;28;19912;-74
2021/12/12 01:55:31;;;;;;;;;;;21.70;99.90;;;;;;5073450;28;19935;-72
2021/12/12 01:58:00;;;;;;;;;;;21.80;99.90;;;;;;5069578;28;20375;-73
2021/12/12 02:00:59;;;;;;;;;;;21.80;99.90;;;;;;5073495;28;19988;-73
2021/12/12 02:03:27;;;;;;;;;;;21.60;99.90;;;;;;5057414;28;19995;-72
2021/12/12 02:05:54;;;;;;;;;;;21.40;99.90;;;;;;5073182;28;20382;-72
2021/12/12 02:08:22;;;;;;;;;;;21.50;99.90;;;;;;5071608;28;19924;-73
2021/12/12 02:10:53;;;;;;;;;;;21.70;99.90;;;;;;5051577;28;20379;-74
2021/12/12 02:13:22;;;;;;;;;;;21.70;99.90;;;;;;5056582;28;19922;-73
2021/12/12 02:15:50;;;;;;;;;;;21.60;99.90;;;;;;5055280;28;19913;-74
2021/12/12 02:18:18;;;;;;;;;;;21.50;99.90;;;;;;5056453;28;19966;-74
2021/12/12 02:21:12;;;;;;;;;;;21.30;99.90;;;;;;5055465;28;19920;-74
2021/12/12 02:37:22;;;;;;;;;;;21.50;99.90;;;;;;5061158;28;19927;-73
2021/12/12 02:39:48;;;;;;;;;;;21.50;99.90;;;;;;5054024;28;20015;-73
2021/12/12 02:42:17;;;;;;;;;;;21.40;99.90;;;;;;5055175;28;19920;-73
2021/12/12 02:44:45;;;;;;;;;;;21.50;99.90;;;;;;5055984;28;20007;-74
2021/12/12 02:47:17;;;;;;;;;;;21.70;99.90;;;;;;5055496;28;20030;-74
2021/12/12 02:52:29;;;;;;;;;;;21.70;99.90;;;;;;5054736;28;19964;-72
2021/12/12 02:55:01;;;;;;;;;;;21.70;99.90;;;;;;5055813;28;20354;-73
2021/12/12 02:57:28;;;;;;;;;;;21.80;99.90;;;;;;5054653;28;19921;-75
2021/12/12 02:59:55;;;;;;;;;;;21.90;99.90;;;;;;5055268;28;19916;-74
2021/12/12 03:02:27;;;;;;;;;;;21.90;99.90;;;;;;5054684;28;19921;-75
2021/12/12 03:04:55;;;;;;;;;;;21.70;99.90;;;;;;5056214;28;20385;-73
2021/12/12 03:07:22;;;;;;;;;;;21.60;99.90;;;;;;5060687;28;19913;-74
2021/12/12 03:09:52;;;;;;;;;;;21.50;99.90;;;;;;5069265;28;19925;-72
2021/12/12 03:12:20;;;;;;;;;;;21.40;99.90;;;;;;5071994;28;19916;-72
2021/12/12 03:14:48;;;;;;;;;;;21.30;99.90;;;;;;5071934;28;19920;-75
2021/12/12 03:17:17;;;;;;;;;;;21.40;99.90;;;;;;5071667;28;19944;-73
2021/12/12 03:19:57;;;;;;;;;;;21.30;99.90;;;;;;5071605;28;19916;-73
2021/12/12 03:22:25;;;;;;;;;;;21.30;99.90;;;;;;5071612;28;20271;-75
2021/12/12 03:24:53;;;;;;;;;;;21.30;99.90;;;;;;5071616;28;19924;-74
2021/12/12 03:27:20;;;;;;;;;;;21.20;99.90;;;;;;5071491;28;19912;-74
2021/12/12 03:29:48;;;;;;;;;;;21.20;99.90;;;;;;5071122;28;19981;-73
2021/12/12 03:32:17;;;;;;;;;;;21.40;99.90;;;;;;5071682;28;19916;-74
2021/12/12 03:34:46;;;;;;;;;;;21.50;99.90;;;;;;5071534;28;20318;-72
2021/12/12 03:37:14;;;;;;;;;;;21.40;99.90;;;;;;5066840;28;19920;-75
2021/12/12 03:39:42;;;;;;;;;;;21.30;99.90;;;;;;5071509;28;20035;-73
2021/12/12 03:42:13;;;;;;;;;;;21.30;99.90;;;;;;5071391;28;20363;-74
2021/12/12 03:44:40;;;;;;;;;;;21.30;99.90;;;;;;5071287;28;19919;-74
2021/12/12 03:47:09;;;;;;;;;;;21.30;99.90;;;;;;5071548;28;20377;-74
2021/12/12 03:49:37;;;;;;;;;;;21.50;99.90;;;;;;5070886;28;20003;-74
2021/12/12 03:52:08;;;;;;;;;;;21.40;99.90;;;;;;5071014;28;19944;-75
2021/12/12 03:54:35;;;;;;;;;;;21.50;99.90;;;;;;5070930;28;19912;-74
2021/12/12 03:57:03;;;;;;;;;;;21.50;99.90;;;;;;5070139;28;19985;-74
2021/12/12 03:59:29;;;;;;;;;;;21.50;99.90;;;;;;5070882;28;19963;-74
2021/12/12 04:01:57;;;;;;;;;;;21.60;99.90;;;;;;5070830;28;19959;-73
2021/12/12 04:04:27;;;;;;;;;;;21.40;99.90;;;;;;5070855;28;19919;-73
2021/12/12 04:06:54;;;;;;;;;;;21.10;99.90;;;;;;5070792;28;20289;-74
2021/12/12 04:09:22;;;;;;;;;;;20.90;99.90;;;;;;5070546;28;20014;-74
2021/12/12 04:11:52;;;;;;;;;;;21.00;99.90;;;;;;5069636;28;19913;-74
2021/12/12 04:14:19;;;;;;;;;;;21.10;99.90;;;;;;5070946;28;19920;-74
2021/12/12 04:16:48;;;;;;;;;;;21.10;99.90;;;;;;5070843;28;19912;-74
2021/12/12 04:19:15;;;;;;;;;;;21.20;99.90;;;;;;5070222;28;19935;-73
2021/12/12 04:21:41;;;;;;;;;;;21.30;99.90;;;;;;5070600;28;20684;-74
2021/12/12 04:24:09;;;;;;;;;;;21.40;99.90;;;;;;5070861;28;19916;-74
2021/12/12 04:26:38;;;;;;;;;;;21.20;99.90;;;;;;5066264;28;20450;-74
2021/12/12 04:29:07;;;;;;;;;;;21.00;99.90;;;;;;5070722;28;20381;-74
2021/12/12 04:31:34;;;;;;;;;;;21.30;99.90;;;;;;5070775;28;19913;-74
2021/12/12 04:34:02;;;;;;;;;;;21.60;99.90;;;;;;5070573;28;19921;-74
2021/12/12 04:36:30;;;;;;;;;;;21.60;99.90;;;;;;5070574;28;19974;-74
2021/12/12 04:39:10;;;;;;;;;;;21.70;99.90;;;;;;5069718;28;19924;-73
2021/12/12 04:41:38;;;;;;;;;;;21.70;99.90;;;;;;5067064;28;19946;-73
2021/12/12 04:44:05;;;;;;;;;;;21.80;99.90;;;;;;5070496;28;19966;-75
2021/12/12 04:49:55;;;;;;;;;;;21.90;99.90;;;;;;5069327;28;20327;-73
2021/12/12 04:52:15;;;;;;;;;;;21.70;99.90;;;;;;5070713;28;19920;-74
2021/12/12 04:55:04;;;;;;;;;;;21.50;99.90;;;;;;5070398;28;19916;-73
2021/12/12 04:57:45;;;;;;;;;;;21.30;99.90;;;;;;5065313;28;19912;-74
2021/12/12 05:00:19;;;;;;;;;;;21.20;99.90;;;;;;5068738;28;19921;-74
2021/12/12 05:02:48;;;;;;;;;;;21.10;99.90;;;;;;5070352;28;20015;-75
2021/12/12 05:05:20;;;;;;;;;;;21.00;99.90;;;;;;5070360;28;19978;-73
2021/12/12 05:08:19;;;;;;;;;;;21.00;99.90;;;;;;5068885;28;19920;-75
2021/12/12 05:10:55;;;;;;;;;;;21.00;99.90;;;;;;5036016;28;19920;-73
2021/12/12 05:13:25;;;;;;;;;;;20.90;99.90;;;;;;5070477;28;20003;-73
2021/12/12 05:16:00;;;;;;;;;;;20.70;99.90;;;;;;5068705;28;19942;-73
2021/12/12 05:18:30;;;;;;;;;;;20.70;99.90;;;;;;5070585;28;19920;-75
2021/12/12 05:21:04;;;;;;;;;;;20.70;99.90;;;;;;5070003;28;20390;-73
2021/12/12 05:23:32;;;;;;;;;;;20.80;99.90;;;;;;5068168;28;20012;-73
2021/12/12 05:25:58;;;;;;;;;;;20.90;99.90;;;;;;5070084;28;20320;-74
2021/12/12 05:28:30;;;;;;;;;;;21.10;99.90;;;;;;5070694;28;19921;-74
2021/12/12 05:30:57;;;;;;;;;;;21.20;99.90;;;;;;5070862;28;20363;-73
2021/12/12 05:33:25;;;;;;;;;;;21.50;99.90;;;;;;5070597;28;19919;-73
2021/12/12 05:35:51;;;;;;;;;;;21.50;99.90;;;;;;5074769;28;20332;-74
2021/12/12 05:38:20;;;;;;;;;;;21.40;99.90;;;;;;5073838;28;19921;-73
2021/12/12 05:40:47;;;;;;;;;;;21.20;99.90;;;;;;5064359;28;19965;-74
2021/12/12 05:43:15;;;;;;;;;;;21.10;99.90;;;;;;5073270;28;19916;-73
2021/12/12 05:45:42;;;;;;;;;;;20.80;99.90;;;;;;5073769;28;19912;-74
2021/12/12 05:48:09;;;;;;;;;;;20.60;99.90;;;;;;5073297;28;19916;-74
2021/12/12 05:50:36;;;;;;;;;;;20.30;99.90;;;;;;5073756;28;19916;-74
2021/12/12 05:53:03;;;;;;;;;;;20.20;99.90;;;;;;5073506;28;19912;-74
2021/12/12 05:55:31;;;;;;;;;;;20.20;99.90;;;;;;5073391;28;20425;-73
2021/12/12 05:57:59;;;;;;;;;;;20.20;99.90;;;;;;5072900;28;19912;-73
2021/12/12 06:00:28;;;;;;;;;;;20.30;99.90;;;;;;5073269;28;20260;-74
2021/12/12 06:02:55;;;;;;;;;;;20.30;99.90;;;;;;5073270;28;19951;-73
2021/12/12 06:05:22;;;;;;;;;;;20.40;99.90;;;;;;5073290;28;19920;-74
2021/12/12 06:07:50;;;;;;;;;;;20.70;99.90;;;;;;5071791;28;20055;-74
2021/12/12 06:10:17;;;;;;;;;;;20.70;99.90;;;;;;5056742;28;19925;-73
2021/12/12 06:12:45;;;;;;;;;;;20.60;99.90;;;;;;5055775;28;19912;-74
2021/12/12 06:15:14;;;;;;;;;;;20.50;99.90;;;;;;5053638;28;20055;-73
2021/12/12 06:17:41;;;;;;;;;;;20.50;99.90;;;;;;5055639;28;20383;-74
2021/12/12 06:20:09;;;;;;;;;;;20.30;99.90;;;;;;5056067;28;19975;-73
2021/12/12 06:22:36;;;;;;;;;;;20.30;99.90;;;;;;5055201;28;20363;-73
2021/12/12 06:25:05;;;;;;;;;;;20.30;99.90;;;;;;5057124;28;20435;-73
2021/12/12 06:27:32;;;;;;;;;;;20.30;99.90;;;;;;5057973;28;19916;-74
2021/12/12 06:29:58;;;;;;;;;;;20.20;99.90;;;;;;5056405;28;19952;-74
2021/12/12 06:32:25;;;;;;;;;;;20.20;99.90;;;;;;5055660;28;19917;-73
2021/12/12 06:34:55;;;;;;;;;;;20.20;99.90;;;;;;5055175;28;20008;-73
2021/12/12 06:37:22;;;;;;;;;;;20.20;99.90;;;;;;5056418;28;19917;-72
2021/12/12 06:39:49;;;;;;;;;;;20.20;99.90;;;;;;5054870;28;19925;-73
2021/12/12 06:42:17;;;;;;;;;;;20.20;99.90;;;;;;5055798;28;20526;-73
2021/12/12 06:44:43;;;;;;;;;;;20.30;99.90;;;;;;5055094;28;19913;-72
2021/12/12 06:47:13;;;;;;;;;;;20.20;99.90;;;;;;5055941;28;19992;-72
2021/12/12 06:49:39;;;;;;;;;;;20.00;99.90;;;;;;5036539;28;19927;-74
2021/12/12 06:52:09;;;;;;;;;;;19.90;99.90;;;;;;5055588;28;20419;-73
2021/12/12 06:54:36;;;;;;;;;;;19.80;99.90;;;;;;5054340;28;20245;-72
2021/12/12 06:57:05;;;;;;;;;;;20.00;99.90;;;;;;5055828;28;20366;-73
2021/12/12 06:59:34;;;;;;;;;;;20.10;99.90;;;;;;5054739;28;19982;-74
2021/12/12 07:02:01;;;;;;;;;;;20.00;99.90;;;;;;5055943;28;19930;-73
2021/12/12 07:04:29;;;;;;;;;;;20.00;99.90;;;;;;5055110;28;19913;-73
2021/12/12 07:06:57;;;;;;;;;;;19.90;99.90;;;;;;5054636;28;19913;-74
2021/12/12 07:09:24;;;;;;;;;;;20.00;99.90;;;;;;5064735;28;19925;-74
2021/12/12 07:11:53;;;;;;;;;;;19.90;99.90;;;;;;5072046;28;19975;-74
2021/12/12 07:14:19;;;;;;;;;;;19.90;99.90;;;;;;5072393;28;20315;-74
2021/12/12 07:16:46;;;;;;;;;;;20.00;99.90;;;;;;5071645;28;20011;-73
2021/12/12 07:19:14;;;;;;;;;;;20.00;99.90;;;;;;5072048;28;19935;-74
2021/12/12 07:21:42;;;;;;;;;;;19.90;99.90;;;;;;5071395;28;19924;-74
2021/12/12 07:24:09;;;;;;;;;;;19.90;99.90;;;;;;5070671;28;19913;-73
2021/12/12 07:26:36;;;;;;;;;;;19.80;99.90;;;;;;5071605;28;19921;-73
2021/12/12 07:29:03;;;;;;;;;;;19.80;99.90;;;;;;5071668;28;20286;-74
2021/12/12 07:31:33;;;;;;;;;;;19.80;99.90;;;;;;5071518;28;19913;-73
2021/12/12 07:34:02;;;;;;;;;;;19.80;99.90;;;;;;5071468;28;19912;-73
2021/12/12 07:36:31;;;;;;;;;;;19.70;99.90;;;;;;5071332;28;19913;-72
2021/12/12 07:39:00;;;;;;;;;;;19.70;99.90;;;;;;5071550;28;19912;-73
2021/12/12 07:41:28;;;;;;;;;;;19.70;99.90;;;;;;5071387;28;20015;-73
2021/12/12 07:43:56;;;;;;;;;;;19.70;99.90;;;;;;5071283;28;19920;-73
2021/12/12 07:46:23;;;;;;;;;;;19.60;99.90;;;;;;5071147;28;19922;-73
2021/12/12 07:48:51;;;;;;;;;;;19.60;99.90;;;;;;5071440;28;20286;-73
2021/12/12 07:51:19;;;;;;;;;;;19.50;99.90;;;;;;5070984;28;19966;-72
2021/12/12 07:53:49;;;;;;;;;;;19.50;99.90;;;;;;5070462;28;19913;-72
2021/12/12 07:56:17;;;;;;;;;;;19.50;99.90;;;;;;5071114;28;19964;-73
2021/12/12 07:58:44;;;;;;;;;;;19.50;99.90;;;;;;5071311;28;19986;-72
2021/12/12 08:01:13;;;;;;;;;;;19.40;99.90;;;;;;5071176;28;19972;-74
2021/12/12 08:03:40;;;;;;;;;;;19.50;99.90;;;;;;5071004;28;19923;-74
2021/12/12 08:06:08;;;;;;;;;;;19.50;99.90;;;;;;5071153;28;20267;-73
2021/12/12 08:08:35;;;;;;;;;;;19.40;99.90;;;;;;5066652;28;19917;-73
2021/12/12 08:11:02;;;;;;;;;;;19.40;99.90;;;;;;5053178;28;19920;-73
2021/12/12 08:13:29;;;;;;;;;;;19.30;99.90;;;;;;5053975;28;19969;-72
2021/12/12 08:15:56;;;;;;;;;;;19.30;99.90;;;;;;5035886;28;20000;-73
2021/12/12 08:18:23;;;;;;;;;;;19.20;99.90;;;;;;5053400;28;19921;-73
2021/12/12 08:20:51;;;;;;;;;;;19.20;99.90;;;;;;5055015;28;20385;-73
2021/12/12 08:23:18;;;;;;;;;;;19.10;99.90;;;;;;5053369;28;19912;-74
2021/12/12 08:25:46;;;;;;;;;;;19.10;99.90;;;;;;5054600;28;20397;-73
2021/12/12 08:28:13;;;;;;;;;;;19.00;99.90;;;;;;5053403;28;19925;-74
2021/12/12 08:30:40;;;;;;;;;;;19.00;99.90;;;;;;5054733;28;20097;-72
2021/12/12 08:33:07;;;;;;;;;;;19.00;99.90;;;;;;5048043;28;19917;-72
2021/12/12 08:35:35;;;;;;;;;;;18.90;99.90;;;;;;5053751;28;19916;-73
2021/12/12 08:38:04;;;;;;;;;;;18.80;99.90;;;;;;5053056;28;20406;-72
2021/12/12 08:40:33;;;;;;;;;;;18.80;99.90;;;;;;5051124;28;20381;-73
2021/12/12 08:43:00;;;;;;;;;;;18.80;99.90;;;;;;5035335;28;19963;-73
2021/12/12 08:45:29;;;;;;;;;;;18.70;99.90;;;;;;5053963;28;20437;-72
2021/12/12 08:47:58;;;;;;;;;;;18.70;99.90;;;;;;5052780;28;19913;-72
2021/12/12 08:50:27;;;;;;;;;;;18.60;99.90;;;;;;5054199;28;20004;-72
2021/12/12 08:52:54;;;;;;;;;;;18.60;99.90;;;;;;5052942;28;20012;-72
2021/12/12 08:55:22;;;;;;;;;;;18.60;99.90;;;;;;5054489;28;19923;-72
2021/12/12 08:58:02;;;;;;;;;;;18.60;99.90;;;;;;5052558;28;20318;-73
2021/12/12 09:00:31;;;;;;;;;;;18.60;99.90;;;;;;5054345;28;19916;-72
2021/12/12 09:02:58;;;;;;;;;;;18.60;99.90;;;;;;5053349;28;19974;-72
2021/12/12 09:05:30;;;;;;;;;;;18.50;99.90;;;;;;5054711;28;19917;-73
2021/12/12 09:08:05;;;;;;;;;;;18.50;99.90;;;;;;5057945;28;19913;-73
2021/12/12 09:10:35;;;;;;;;;;;18.50;99.90;;;;;;5074268;28;19928;-72
2021/12/12 09:13:13;;;;;;;;;;;18.50;99.90;;;;;;5072851;28;19909;-72
2021/12/12 09:15:46;;;;;;;;;;;18.50;99.90;;;;;;5074412;28;19924;-73
2021/12/12 09:18:17;;;;;;;;;;;18.50;99.90;;;;;;5073731;28;20003;-72
2021/12/12 09:20:49;;;;;;;;;;;18.40;99.90;;;;;;5074328;28;19966;-73
2021/12/12 09:23:22;;;;;;;;;;;18.40;99.90;;;;;;5074325;28;20023;-72
2021/12/12 09:25:52;;;;;;;;;;;18.30;99.90;;;;;;5074165;28;19982;-73
2021/12/12 09:28:37;;;;;;;;;;;18.30;99.90;;;;;;5074032;28;19916;-73
2021/12/12 09:31:05;;;;;;;;;;;18.30;99.90;;;;;;5072570;28;19966;-73
2021/12/12 09:33:36;;;;;;;;;;;18.30;99.90;;;;;;5073202;28;19944;-72
2021/12/12 09:36:06;;;;;;;;;;;18.20;99.90;;;;;;5073654;28;20314;-72
2021/12/12 09:38:39;;;;;;;;;;;18.30;99.90;;;;;;5072549;28;19908;-71
2021/12/12 09:41:23;;;;;;;;;;;18.30;99.90;;;;;;5073969;28;20006;-72
2021/12/12 09:44:08;;;;;;;;;;;18.30;99.90;;;;;;5073369;28;19963;-72
2021/12/12 09:47:56;;;;;;;;;;;18.30;99.90;;;;;;5073758;28;19920;-72
2021/12/12 09:52:34;;;;;;;;;;;18.30;99.90;;;;;;5071782;28;19966;-72
2021/12/12 09:55:03;;;;;;;;;;;18.30;99.90;;;;;;5073457;28;20003;-72
2021/12/12 09:57:33;;;;;;;;;;;18.30;99.90;;;;;;5068116;28;19991;-72
2021/12/12 10:00:19;;;;;;;;;;;18.30;99.90;;;;;;5069659;28;19921;-72
2021/12/12 10:02:46;;;;;;;;;;;18.40;99.90;;;;;;5057316;28;19917;-72
2021/12/12 10:05:36;;;;;;;;;;;18.40;99.90;;;;;;5071375;28;19931;-72
2021/12/12 10:08:05;;;;;;;;;;;18.30;99.90;;;;;;5070859;28;20359;-72
2021/12/12 10:10:37;;;;;;;;;;;18.30;99.90;;;;;;5057690;28;19924;-73
2021/12/12 10:13:13;;;;;;;;;;;18.30;99.90;;;;;;5052080;28;19959;-73
2021/12/12 10:15:43;;;;;;;;;;;18.30;99.90;;;;;;5061546;28;20337;-72
2021/12/12 10:18:16;;;;;;;;;;;18.30;99.90;;;;;;5057575;28;19924;-73
2021/12/12 10:20:49;;;;;;;;;;;18.30;99.90;;;;;;5056718;28;20383;-72
2021/12/12 10:23:16;;;;;;;;;;;18.20;99.90;;;;;;5055651;28;19917;-73
2021/12/12 10:25:42;;;;;;;;;;;18.20;99.90;;;;;;5056257;28;19943;-71
2021/12/12 10:28:19;;;;;;;;;;;18.20;99.90;;;;;;5055341;28;19913;-73
2021/12/12 10:31:04;;;;;;;;;;;18.20;99.90;;;;;;5055951;28;19916;-72
2021/12/12 10:33:36;;;;;;;;;;;18.20;99.90;;;;;;5055259;28;19924;-72
2021/12/12 10:36:03;;;;;;;;;;;18.30;99.90;;;;;;5056236;28;19912;-72
2021/12/12 10:38:38;;;;;;;;;;;18.30;99.90;;;;;;5054214;28;20332;-73
2021/12/12 10:41:15;;;;;;;;;;;18.30;99.90;;;;;;5056020;28;19928;-74
2021/12/12 10:43:45;;;;;;;;;;;18.30;99.90;;;;;;5055513;28;19916;-74
2021/12/12 10:46:35;;;;;;;;;;;18.30;99.90;;;;;;5056874;28;19927;-74
2021/12/12 10:49:21;;;;;;;;;;;18.20;99.90;;;;;;5033332;28;19916;-74
2021/12/12 10:51:51;;;;;;;;;;;18.30;99.90;;;;;;5054801;28;19970;-74
2021/12/12 10:54:22;;;;;;;;;;;18.20;99.90;;;;;;5057029;28;19970;-74
2021/12/12 10:56:56;;;;;;;;;;;18.20;99.90;;;;;;5058687;28;19963;-73
2021/12/12 10:59:26;;;;;;;;;;;18.20;99.90;;;;;;5055441;28;20334;-72
2021/12/12 11:01:55;;;;;;;;;;;18.20;99.90;;;;;;5053965;28;19974;-72
2021/12/12 11:04:24;;;;;;;;;;;18.20;99.90;;;;;;5057216;28;19948;-72
2021/12/12 11:06:58;;;;;;;;;;;18.20;99.90;;;;;;5058250;28;19960;-73
2021/12/12 11:09:34;;;;;;;;;;;18.20;99.90;;;;;;5071455;28;19978;-73
2021/12/12 11:12:00;;;;;;;;;;;18.20;99.90;;;;;;5071515;28;19913;-74
2021/12/12 11:14:29;;;;;;;;;;;18.20;99.90;;;;;;5072113;28;19916;-74
2021/12/12 11:16:59;;;;;;;;;;;18.20;99.90;;;;;;5071867;28;19921;-74
2021/12/12 11:19:41;;;;;;;;;;;18.20;99.90;;;;;;5069872;28;20426;-72
2021/12/12 11:22:10;;;;;;;;;;;18.20;99.90;;;;;;5071564;28;20007;-73
2021/12/12 11:24:48;;;;;;;;;;;18.30;99.90;;;;;;5071669;28;19920;-72
2021/12/12 11:27:22;;;;;;;;;;;18.20;99.90;;;;;;5071023;28;19920;-73
2021/12/12 11:29:50;;;;;;;;;;;18.20;99.90;;;;;;5063621;28;19962;-74
2021/12/12 11:32:20;;;;;;;;;;;18.20;99.90;;;;;;5071291;28;20016;-72
2021/12/12 11:34:49;;;;;;;;;;;18.20;99.90;;;;;;5071583;28;19920;-73
2021/12/12 11:37:25;;;;;;;;;;;18.20;99.90;;;;;;5068260;28;19948;-73
2021/12/12 11:40:01;;;;;;;;;;;18.10;99.90;;;;;;5071610;28;19913;-74
2021/12/12 11:42:33;;;;;;;;;;;18.10;99.90;;;;;;5071654;28;19916;-73
2021/12/12 11:45:06;;;;;;;;;;;18.10;99.90;;;;;;5071644;28;19919;-73
2021/12/12 11:47:42;;;;;;;;;;;18.10;99.90;;;;;;5071387;28;19966;-73
2021/12/12 11:50:35;;;;;;;;;;;18.10;99.90;;;;;;5071206;28;20333;-73
2021/12/12 11:53:06;;;;;;;;;;;18.10;99.90;;;;;;5065120;28;20003;-73
2021/12/12 11:55:40;;;;;;;;;;;18.10;99.90;;;;;;5071096;28;19916;-73
2021/12/12 11:58:16;;;;;;;;;;;18.10;99.90;;;;;;5071295;28;19962;-74
2021/12/12 12:00:47;;;;;;;;;;;18.10;99.90;;;;;;5071277;28;20433;-74
2021/12/12 12:03:21;;;;;;;;;;;18.10;99.90;;;;;;5064562;28;19912;-73
2021/12/12 12:05:52;;;;;;;;;;;18.10;99.90;;;;;;5071031;28;19912;-73
2021/12/12 12:08:19;;;;;;;;;;;18.10;99.90;;;;;;5063570;28;20418;-73
2021/12/12 12:11:04;;;;;;;;;;;18.10;99.90;;;;;;5071330;28;20417;-72
2021/12/12 12:13:49;;;;;;;;;;;18.10;99.90;;;;;;5098756;28;19916;-73
2021/12/12 12:16:27;;;;;;;;;;;18.10;99.90;;;;;;5071344;28;19912;-73
2021/12/12 12:19:08;;;;;;;;;;;18.10;99.90;;;;;;5070839;28;20366;-73
2021/12/12 12:21:35;;;;;;;;;;;18.10;99.90;;;;;;5071058;28;19960;-73
2021/12/12 12:26:51;;;;;;;;;;;18.00;99.90;;;;;;5071171;28;19913;-73
2021/12/12 12:29:33;;;;;;;;;;;18.00;99.90;;;;;;5070918;28;19912;-74
2021/12/12 12:32:18;;;;;;;;;;;18.00;99.90;;;;;;5070582;28;20011;-72
2021/12/12 12:34:50;;;;;;;;;;;18.00;99.90;;;;;;5070890;28;19912;-72
2021/12/12 12:37:36;;;;;;;;;;;18.00;99.90;;;;;;5067966;28;19919;-74
2021/12/12 12:40:21;;;;;;;;;;;17.90;99.90;;;;;;5070853;28;19946;-74
2021/12/12 12:43:05;;;;;;;;;;;17.90;99.90;;;;;;5072672;28;20383;-73
2021/12/12 12:45:50;;;;;;;;;;;17.90;99.90;;;;;;5074779;28;19931;-74
2021/12/12 12:48:23;;;;;;;;;;;17.90;99.90;;;;;;5074692;28;19919;-72
2021/12/12 12:51:10;;;;;;;;;;;17.80;99.90;;;;;;5074713;28;19966;-74
2021/12/12 12:54:09;;;;;;;;;;;17.90;99.90;;;;;;5069907;28;19912;-74
2021/12/12 12:56:54;;;;;;;;;;;17.80;99.90;;;;;;5060811;28;20007;-74
2021/12/12 12:59:38;;;;;;;;;;;17.70;99.90;;;;;;5074725;28;19995;-72
2021/12/12 13:02:13;;;;;;;;;;;17.70;99.90;;;;;;5074257;28;19924;-74
2021/12/12 13:04:58;;;;;;;;;;;17.70;99.90;;;;;;5074060;28;19944;-73
2021/12/12 13:07:28;;;;;;;;;;;17.60;99.90;;;;;;5073820;28;19912;-72
2021/12/12 13:10:03;;;;;;;;;;;17.70;99.90;;;;;;5073257;28;20345;-74
2021/12/12 13:12:42;;;;;;;;;;;17.70;99.90;;;;;;5074150;28;19913;-73
2021/12/12 13:15:11;;;;;;;;;;;17.70;99.90;;;;;;5068282;28;19916;-73
2021/12/12 13:17:44;;;;;;;;;;;17.70;99.90;;;;;;5074078;28;20287;-73
2021/12/12 13:20:43;;;;;;;;;;;17.70;99.90;;;;;;5074241;28;19920;-73
2021/12/12 13:23:14;;;;;;;;;;;17.60;99.90;;;;;;5058384;28;19992;-73
2021/12/12 13:25:44;;;;;;;;;;;17.70;99.90;;;;;;5073991;28;20417;-73
2021/12/12 13:28:31;;;;;;;;;;;17.70;99.90;;;;;;5073878;28;19917;-74
2021/12/12 13:31:16;;;;;;;;;;;17.70;99.90;;;;;;5073907;28;19919;-73
2021/12/12 13:33:45;;;;;;;;;;;17.70;99.90;;;;;;5069045;28;19912;-73
2021/12/12 13:36:30;;;;;;;;;;;17.60;99.90;;;;;;5070834;28;20029;-73
2021/12/12 13:39:04;;;;;;;;;;;17.60;99.90;;;;;;5073913;28;19920;-73
2021/12/12 13:41:47;;;;;;;;;;;17.60;99.90;;;;;;5073741;28;19928;-73
2021/12/12 13:44:23;;;;;;;;;;;17.60;99.90;;;;;;5073447;28;19973;-73
2021/12/12 13:46:58;;;;;;;;;;;17.60;99.90;;;;;;5067257;28;20286;-73
2021/12/12 13:49:27;;;;;;;;;;;17.60;99.90;;;;;;5073359;28;19913;-73
2021/12/12 13:52:03;;;;;;;;;;;17.50;99.90;;;;;;5072653;28;19920;-73
2021/12/12 13:54:33;;;;;;;;;;;17.50;99.90;;;;;;5073214;28;19950;-73
2021/12/12 13:57:03;;;;;;;;;;;17.50;99.90;;;;;;5074018;28;20301;-73
2021/12/12 13:59:45;;;;;;;;;;;17.50;99.90;;;;;;5073602;28;19999;-73
2021/12/12 14:02:13;;;;;;;;;;;17.50;99.90;;;;;;5073270;28;20019;-72
2021/12/12 14:04:50;;;;;;;;;;;17.50;99.90;;;;;;5073244;28;20386;-72
2021/12/12 14:07:17;;;;;;;;;;;17.50;99.90;;;;;;5073266;28;19917;-73
2021/12/12 14:09:45;;;;;;;;;;;17.60;99.90;;;;;;5073274;28;19920;-73
2021/12/12 14:12:12;;;;;;;;;;;17.50;99.90;;;;;;5073202;28;19923;-74
2021/12/12 14:14:52;;;;;;;;;;;17.60;99.90;;;;;;5070491;28;19927;-74
2021/12/12 14:17:22;;;;;;;;;;;17.60;99.90;;;;;;5072885;28;19919;-73
2021/12/12 14:19:51;;;;;;;;;;;17.60;99.90;;;;;;5072825;28;20465;-75
2021/12/12 14:22:19;;;;;;;;;;;17.60;99.90;;;;;;5073051;28;19937;-74
2021/12/12 14:24:46;;;;;;;;;;;17.60;99.90;;;;;;5071853;28;19912;-73
2021/12/12 14:27:14;;;;;;;;;;;17.50;99.90;;;;;;5073004;28;20031;-74
2021/12/12 14:29:43;;;;;;;;;;;17.50;99.90;;;;;;5072967;28;19924;-73
2021/12/12 14:32:29;;;;;;;;;;;17.50;99.90;;;;;;5072471;28;19918;-73
2021/12/12 14:34:56;;;;;;;;;;;17.40;99.90;;;;;;5071868;28;19912;-74
2021/12/12 14:37:28;;;;;;;;;;;17.40;99.90;;;;;;5072503;28;19948;-73
2021/12/12 14:40:15;;;;;;;;;;;17.40;99.90;;;;;;5072591;28;19916;-74
2021/12/12 14:42:46;;;;;;;;;;;17.40;99.90;;;;;;5072281;28;19990;-73
2021/12/12 14:45:16;;;;;;;;;;;17.50;99.90;;;;;;5072306;28;20298;-73
2021/12/12 14:47:45;;;;;;;;;;;17.30;99.90;;;;;;5072256;28;20297;-74
2021/12/12 14:50:15;;;;;;;;;;;17.30;99.90;;;;;;5072921;28;19916;-75
2021/12/12 14:52:43;;;;;;;;;;;17.30;99.90;;;;;;5072433;28;19928;-75
2021/12/12 14:55:13;;;;;;;;;;;17.30;99.90;;;;;;5072641;28;19975;-74
2021/12/12 14:57:40;;;;;;;;;;;17.30;99.90;;;;;;5072479;28;19920;-75
2021/12/12 15:00:10;;;;;;;;;;;17.40;99.90;;;;;;5072286;28;19919;-74
2021/12/12 15:02:39;;;;;;;;;;;17.30;99.90;;;;;;5072232;28;19917;-74
2021/12/12 15:05:09;;;;;;;;;;;17.30;99.90;;;;;;5067669;28;19912;-74
2021/12/12 15:07:38;;;;;;;;;;;17.30;99.90;;;;;;5074904;28;19916;-72